Date,TemperatureHighF,TemperatureAvgF,TemperatureLowF,DewpointHighF,DewpointAvgF,DewpointLowF,HumidityHigh,HumidityAvg,HumidityLow,PressureMaxIn,PressureMinIn,WindSpeedMaxMPH,WindSpeedAvgMPH,GustSpeedMaxMPH,PrecipitationSumIn
2013-5-1,36,31,23,33,27,20,92,85,72,30.58,29.73,15,1,15,0.43
2013-5-2,43,32,17,25,19,7,88,62,27,30.70,30.38,8,0,8,0.28
2013-5-3,59,37,27,32,25,22,83,66,31,30.38,30.05,7,0,7,0.01
2013-5-9,47,45,44,39,39,39,83,79,74,29.94,29.94,2,0,3,0.17
2013-5-10,67,54,40,44,38,33,86,58,30,30.06,29.92,12,1,12,0.00
2013-5-11,69,56,44,45,39,32,77,54,28,30.12,29.90,13,1,13,0.00
2013-5-12,78,64,48,48,37,30,74,41,18,29.92,29.71,11,1,11,0.00
2013-5-13,84,72,58,48,38,33,50,32,18,29.74,29.56,10,0,10,0.00
2013-5-14,86,71,57,47,38,29,53,32,15,29.56,29.44,26,2,26,0.00
2013-5-15,81,66,53,50,42,35,77,46,21,29.56,29.43,24,1,24,0.00
2013-5-16,81,66,50,50,43,32,84,49,18,29.53,29.39,25,1,25,0.00
2013-5-17,86,69,50,49,39,21,78,40,10,29.47,29.26,13,1,13,0.00
2013-5-18,77,65,53,41,33,17,57,31,14,29.45,29.31,23,2,23,0.00
2013-5-19,73,60,46,39,32,22,62,38,18,29.49,29.38,20,2,20,0.00
2013-5-20,67,56,48,46,41,31,86,60,34,29.69,29.48,13,1,13,0.06
2013-5-21,71,56,41,43,36,29,86,51,23,29.75,29.55,10,1,10,0.00
2013-5-22,76,58,42,51,39,34,83,54,22,29.73,29.53,16,1,16,0.06
2013-5-23,70,58,48,52,46,44,86,68,43,29.76,29.58,14,1,14,0.00
2013-5-24,83,64,45,54,44,32,92,57,17,29.66,29.52,11,0,11,0.00
2013-5-25,86,70,51,53,44,26,80,46,12,29.59,29.40,5,0,9,0.00
2013-5-26,87,69,52,53,36,21,64,34,10,29.48,29.41,15,1,15,0.00
2013-5-27,85,67,48,42,33,20,65,32,11,29.43,29.29,17,1,17,0.00
2013-5-28,79,63,47,48,40,25,75,45,16,29.43,29.15,11,0,11,0.00
2013-5-29,66,56,48,50,42,28,90,64,31,29.39,29.22,30,1,30,0.37
2013-5-30,70,61,50,35,28,21,57,31,17,29.51,29.34,32,5,32,0.00
2013-5-31,71,62,50,30,21,14,40,22,13,29.67,29.48,26,5,26,0.00